PABT

Bettles Airport

Airport
ICAO code
PABT
IATA Code
BTT
Summary
ICAO Region
NAM
ICAO Territory
Location

, Alaska

Serving
Bettles
Elevation
647 ft
Coordinates
66° 54' 50" N , 151° 31' 45" W
Metar
PABT 270653Z 04006KT 10SM -RA FEW030 BKN055 BKN070 08/02 A2978 RMK SLP096 PCPN VRY LGT P0000 T00780022

Runways

Designator Length Width Surface Rops
1/19 1582 46 GVL No/No

Airport map

Aerial View

SKYbrary Partners:

Safety knowledge contributed by: